GW2624 Weather Reports


Display with metric or nautical units.
time (UTC)temp
F
wind
direction
speed
MPH
gust
MPH
rain 1hr
in
rain 24hr
in
rain mn
in
humidity
%
barometer
mb
20240225221405 62 274 6.0 13.0 0.00 0.00 0.00 25 1018.6
20240225220905 63 256 4.0 14.0 0.00 0.00 0.00 25 1018.5
20240225214904 64 254 5.0 14.0 0.00 0.00 0.00 24 1018.4
20240225214406 64 281 7.0 14.0 0.00 0.00 0.00 23 1018.4
20240225211405 63 335 1.0 7.0 0.00 0.00 0.00 21 1018.4
20240225205905 63 281 2.0 8.0 0.00 0.00 0.00 21 1018.6
20240225204905 62 130 3.0 9.0 0.00 0.00 0.00 21 1018.5
20240225204405 63 345 2.0 6.0 0.00 0.00 0.00 21 1018.7
20240225202404 62 271 3.0 8.0 0.00 0.00 0.00 21 1019.1
20240225201914 63 264 3.0 8.0 0.00 0.00 0.00 21 1019.2
20240225201405 63 32 3.0 7.0 0.00 0.00 0.00 21 1019.1
20240225200905 63 347 2.0 7.0 0.00 0.00 0.00 21 1019.3
20240225195404 62 283 2.0 5.0 0.00 0.00 0.00 22 1019.5
20240225194905 62 274 1.0 7.0 0.00 0.00 0.00 21 1019.6
20240225194405 61 27 1.0 7.0 0.00 0.00 0.00 22 1019.6
20240225192904 60 286 3.0 10.0 0.00 0.00 0.00 24 1020.0
20240225191406 60 162 3.0 6.0 0.00 0.00 0.00 23 1020.3
20240225190405 60 280 1.0 3.0 0.00 0.00 0.00 25 1020.5
20240225185905 59 35 1.0 5.0 0.00 0.00 0.00 24 1020.6
20240225184905 58 241 2.0 6.0 0.00 0.00 0.00 24 1020.9
20240225183905 58 294 2.0 6.0 0.00 0.00 0.00 24 1021.1
20240225183405 57 26 2.0 5.0 0.00 0.00 0.00 25 1021.1
20240225182905 57 23 1.0 5.0 0.00 0.00 0.00 26 1021.3
20240225182405 56 278 2.0 5.0 0.00 0.00 0.00 25 1021.4
20240225181907 57 247 3.0 5.0 0.00 0.00 0.00 24 1021.5
20240225181405 56 287 2.0 5.0 0.00 0.00 0.00 25 1021.5
20240225180904 56 253 2.0 5.0 0.00 0.00 0.00 24 1021.7
20240225175904 56 311 2.0 5.0 0.00 0.00 0.00 25 1021.7
20240225175404 56 335 1.0 5.0 0.00 0.00 0.00 24 1021.8
20240225174404 55 251 1.0 6.0 0.00 0.00 0.00 25 1021.9
20240225173405 56 271 2.0 3.0 0.00 0.00 0.00 25 1021.9
20240225172406 54 318 0.0 6.0 0.00 0.00 0.00 26 1022.0
20240225171905 53 340 1.0 6.0 0.00 0.00 0.00 27 1022.1
20240225170404 51 296 1.0 3.0 0.00 0.00 0.00 27 1022.2
20240225165405 50 279 1.0 3.0 0.00 0.00 0.00 29 1022.4
20240225163905 47 286 0.0 3.0 0.00 0.00 0.00 31 1022.4
20240225163404 47 281 1.0 3.0 0.00 0.00 0.00 32 1022.6
20240225162904 46 198 1.0 3.0 0.00 0.00 0.00 32 1022.7
20240225161905 45 66 1.0 3.0 0.00 0.00 0.00 33 1022.7
20240225160405 43 28 1.0 2.0 0.00 0.00 0.00 34 1022.6
20240225155904 43 317 1.0 2.0 0.00 0.00 0.00 34 1022.7
20240225154904 42 314 1.0 2.0 0.00 0.00 0.00 35 1022.7
20240225153905 41 309 1.0 3.0 0.00 0.00 0.00 38 1022.6
20240225152405 37 221 1.0 2.0 0.00 0.00 0.00 46 1022.5
20240225151906 36 204 1.0 2.0 0.00 0.00 0.00 50 1022.5
20240225150904 34 0 1.0 2.0 0.00 0.00 0.00 53 1022.3
20240225150404 32 8 0.0 2.0 0.00 0.00 0.00 56 1022.3
20240225145904 31 147 1.0 3.0 0.00 0.00 0.00 59 1022.3
20240225144905 28 138 1.0 2.0 0.00 0.00 0.00 64 1022.1
20240225144404 27 138 1.0 3.0 0.00 0.00 0.00 65 1022.1
20240225143404 25 138 1.0 2.0 0.00 0.00 0.00 66 1022.1
20240225142905 25 138 1.0 2.0 0.00 0.00 0.00 67 1022.1
20240225140904 24 138 0.0 2.0 0.00 0.00 0.00 68 1022.2
20240225140405 24 138 0.0 2.0 0.00 0.00 0.00 68 1022.0
20240225135905 24 138 0.0 2.0 0.00 0.00 0.00 68 1022.0
20240225132404 23 138 0.0 0.0 0.00 0.00 0.00 68 1021.7
20240225131904 23 138 0.0 2.0 0.00 0.00 0.00 68 1021.6
20240225130904 23 138 1.0 1.0 0.00 0.00 0.00 67 1021.5
20240225123904 23 140 0.0 2.0 0.00 0.00 0.00 68 1022.1
20240225122904 23 142 1.0 2.0 0.00 0.00 0.00 67 1022.1
20240225122404 23 142 1.0 2.0 0.00 0.00 0.00 67 1022.0
20240225121904 23 142 1.0 2.0 0.00 0.00 0.00 68 1022.0
20240225121404 23 142 0.0 3.0 0.00 0.00 0.00 67 1021.9
20240225113904 23 149 1.0 3.0 0.00 0.00 0.00 66 1021.6
20240225113404 23 149 1.0 2.0 0.00 0.00 0.00 67 1021.6
20240225112404 24 149 1.0 1.0 0.00 0.00 0.00 66 1021.6
20240225110906 24 149 0.0 1.0 0.00 0.00 0.00 64 1021.2
20240225110404 24 149 0.0 1.0 0.00 0.00 0.00 64 1021.0
20240225105904 24 149 0.0 1.0 0.00 0.00 0.00 64 1021.0
20240225105404 24 149 0.0 1.0 0.00 0.00 0.00 63 1021.0
20240225104904 24 149 0.0 2.0 0.00 0.00 0.00 63 1021.0
20240225104404 24 149 1.0 2.0 0.00 0.00 0.00 63 1021.0
20240225102404 25 149 0.0 0.0 0.00 0.00 0.00 63 1020.9
20240225101904 25 149 0.0 1.0 0.00 0.00 0.00 63 1020.9
20240225100905 25 149 0.0 1.0 0.00 0.00 0.00 62 1020.9
20240225095404 25 150 0.0 0.0 0.00 0.00 0.00 62 1021.3
20240225094904 25 150 0.0 1.0 0.00 0.00 0.00 62 1021.4
20240225094404 26 150 0.0 1.0 0.00 0.00 0.00 61 1021.4
20240225093906 26 150 0.0 2.0 0.00 0.00 0.00 61 1021.4
20240225092905 26 150 0.0 2.0 0.00 0.00 0.00 62 1021.5
20240225092405 26 150 0.0 2.0 0.00 0.00 0.00 62 1021.5
20240225091905 26 148 1.0 2.0 0.00 0.00 0.00 60 1021.5
20240225090905 26 148 0.0 0.0 0.00 0.00 0.00 62 1021.5
20240225085905 27 148 0.0 0.0 0.00 0.00 0.00 61 1021.4
20240225084905 27 148 0.0 1.0 0.00 0.00 0.00 60 1021.4
20240225083905 28 148 0.0 1.0 0.00 0.00 0.00 59 1021.4
20240225082405 28 148 1.0 3.0 0.00 0.00 0.00 58 1021.6
20240225081905 28 148 1.0 3.0 0.00 0.00 0.00 58 1021.6
20240225081405 28 148 2.0 3.0 0.00 0.00 0.00 58 1021.6
20240225080904 28 158 1.0 2.0 0.00 0.00 0.00 59 1021.6
20240225080405 28 158 1.0 2.0 0.00 0.00 0.00 58 1021.7
20240225075905 28 158 1.0 2.0 0.00 0.00 0.00 58 1021.7
20240225075406 28 158 0.0 1.0 0.00 0.00 0.00 58 1021.8
20240225074905 28 158 1.0 1.0 0.00 0.00 0.00 58 1021.7
20240225073905 29 158 0.0 2.0 0.00 0.00 0.00 57 1021.8
20240225073406 29 158 1.0 2.0 0.00 0.00 0.00 56 1021.8
20240225071906 30 158 1.0 2.0 0.00 0.00 0.00 55 1021.8
20240225071405 30 158 0.0 2.0 0.00 0.00 0.00 54 1021.8
20240225070906 30 158 0.0 3.0 0.00 0.00 0.00 55 1021.8
20240225070406 30 158 0.0 3.0 0.00 0.00 0.00 55 1021.8
20240225065905 30 158 1.0 3.0 0.00 0.00 0.00 56 1021.7
20240225064905 30 135 1.0 3.0 0.00 0.00 0.00 56 1021.7
20240225063905 30 100 1.0 3.0 0.00 0.00 0.00 57 1021.6
20240225063405 30 98 0.0 2.0 0.00 0.00 0.00 57 1021.6
20240225061905 29 95 1.0 2.0 0.00 0.00 0.00 57 1021.5
20240225061405 29 106 1.0 2.0 0.00 0.00 0.00 58 1021.6
20240225060404 30 107 0.0 2.0 0.00 0.00 0.00 57 1021.8
20240225052905 31 90 0.0 2.0 0.00 0.00 0.00 54 1021.3
20240225051405 31 90 1.0 2.0 0.00 0.00 0.00 54 1021.1
20240225050905 32 90 1.0 3.0 0.00 0.00 0.00 52 1021.0
20240225043905 34 71 0.0 3.0 0.00 0.00 0.00 47 1021.2
20240225041905 36 351 1.0 2.0 0.00 0.00 0.00 44 1021.4
20240225040905 36 342 0.0 2.0 0.00 0.00 0.00 42 1021.6
20240225035905 36 342 1.0 2.0 0.00 0.00 0.00 42 1021.6
20240225035405 36 329 1.0 2.0 0.00 0.00 0.00 42 1021.5
20240225034405 36 329 0.0 2.0 0.00 0.00 0.00 41 1021.3
20240225032404 36 323 0.0 2.0 0.00 0.00 0.00 43 1021.5
20240225031905 37 324 1.0 2.0 0.00 0.00 0.00 42 1021.4
20240225025405 35 80 0.0 3.0 0.00 0.00 0.00 44 1021.3
20240225024904 35 170 1.0 2.0 0.00 0.00 0.00 45 1021.4
20240225024405 36 238 0.0 3.0 0.00 0.00 0.00 43 1021.4
20240225023405 35 40 2.0 3.0 0.00 0.00 0.00 44 1021.4
20240225020904 38 85 0.0 1.0 0.00 0.00 0.00 41 1021.1
20240225020405 38 85 0.0 2.0 0.00 0.00 0.00 41 1021.1
20240225015906 39 81 0.0 2.0 0.00 0.00 0.00 39 1021.0
20240225014905 40 81 0.0 2.0 0.00 0.00 0.00 36 1020.8
20240225012905 43 64 0.0 2.0 0.00 0.00 0.00 33 1020.5
20240225011404 46 5 0.0 0.0 0.00 0.00 0.00 31 1020.3
20240225004904 52 5 0.0 0.0 0.00 0.00 0.00 24 1019.8
20240225004405 53 5 0.0 0.0 0.00 0.00 0.00 23 1019.7
20240225003905 53 0 0.0 0.0 0.00 0.00 0.00 21 1019.8
20240225002905 55 0 0.0 2.0 0.00 0.00 0.00 20 1019.7
20240225002404 55 5 1.0 2.0 0.00 0.00 0.00 19 1019.7
20240225001904 55 0 0.0 2.0 0.00 0.00 0.00 18 1019.6
20240225001406 56 5 0.0 2.0 0.00 0.00 0.00 19 1019.5
20240225000907 56 11 0.0 1.0 0.00 0.00 0.00 19 1019.5
20240224235905 57 355 0.0 3.0 0.00 0.00 0.00 18 1019.5
20240224234905 58 58 1.0 3.0 0.00 0.00 0.00 17 1019.5
20240224234405 58 14 0.0 3.0 0.00 0.00 0.00 18 1019.4
20240224232405 58 276 1.0 3.0 0.00 0.00 0.00 18 1019.3
20240224225405 59 266 3.0 5.0 0.00 0.00 0.00 19 1019.7
20240224224905 59 246 2.0 7.0 0.00 0.00 0.00 19 1019.7
20240224223905 60 267 1.0 7.0 0.00 0.00 0.00 20 1019.8